createdAt,value
2023-04-19T00:01:16.703Z,93.80
2023-04-19T00:03:43.519Z,93.80
2023-04-19T00:06:10.505Z,93.80
2023-04-19T00:08:37.084Z,93.80
2023-04-19T00:11:03.737Z,93.90
2023-04-19T00:13:30.398Z,93.80
2023-04-19T00:15:57.092Z,94.10
2023-04-19T00:18:23.747Z,94.10
2023-04-19T00:20:51.071Z,94.20
2023-04-19T00:23:17.685Z,94.30
2023-04-19T00:25:46.250Z,94.40
2023-04-19T00:28:12.874Z,94.30
2023-04-19T00:30:39.579Z,94.40
2023-04-19T00:33:12.561Z,94.30
2023-04-19T00:35:42.270Z,94.30
2023-04-19T00:38:09.038Z,94.40
2023-04-19T00:40:37.875Z,94.10
2023-04-19T00:43:05.193Z,94.70
2023-04-19T00:45:35.253Z,94.10
2023-04-19T00:48:02.186Z,93.90
2023-04-19T00:50:29.113Z,93.90
2023-04-19T00:52:57.612Z,93.80
2023-04-19T00:55:25.345Z,93.80
2023-04-19T00:57:53.717Z,93.80
2023-04-19T01:00:20.531Z,93.70
2023-04-19T01:02:48.010Z,93.70
2023-04-19T01:05:15.148Z,93.70
2023-04-19T01:07:42.764Z,93.70
2023-04-19T01:10:09.937Z,93.70
2023-04-19T01:12:36.649Z,93.70
2023-04-19T01:15:03.835Z,93.50
2023-04-19T01:17:32.191Z,93.40
2023-04-19T01:20:00.593Z,93.10
2023-04-19T01:22:28.158Z,92.80
2023-04-19T01:24:54.765Z,91.60
2023-04-19T01:27:21.520Z,84.50
2023-04-19T01:29:48.146Z,1.00
2023-04-19T01:32:14.773Z,1.00
2023-04-19T01:34:42.733Z,1.00
2023-04-19T01:37:09.361Z,1.00
2023-04-19T01:39:36.028Z,1.00
2023-04-19T01:42:02.924Z,1.00
2023-04-19T01:44:30.506Z,1.00
2023-04-19T01:46:57.229Z,1.00
2023-04-19T01:49:23.874Z,1.00
2023-04-19T01:51:50.596Z,1.00
2023-04-19T01:54:17.460Z,1.00
2023-04-19T01:56:44.278Z,1.00
2023-04-19T01:59:11.234Z,1.00
2023-04-19T02:01:37.860Z,1.00
2023-04-19T02:04:04.751Z,1.00
2023-04-19T02:06:31.821Z,1.00
2023-04-19T02:08:58.606Z,1.00
2023-04-19T02:11:25.281Z,1.00
2023-04-19T02:13:51.888Z,1.00
2023-04-19T02:16:18.599Z,1.00
2023-04-19T02:18:46.723Z,1.00
2023-04-19T02:21:13.778Z,1.00
2023-04-19T02:23:40.429Z,1.00
2023-04-19T02:26:07.081Z,1.00
2023-04-19T02:28:34.582Z,1.00
2023-04-19T02:31:06.059Z,1.00
2023-04-19T02:33:34.809Z,1.00
2023-04-19T02:36:01.403Z,1.00
2023-04-19T02:38:28.052Z,1.00
2023-04-19T02:40:54.807Z,1.00
2023-04-19T02:43:21.408Z,1.00
2023-04-19T02:45:48.100Z,1.00
2023-04-19T02:48:14.727Z,1.00
2023-04-19T02:50:41.457Z,1.00
2023-04-19T02:53:08.429Z,1.00
2023-04-19T02:55:35.274Z,1.00
2023-04-19T02:58:09.038Z,1.00
2023-04-19T03:00:42.598Z,1.00
2023-04-19T03:03:14.183Z,1.00
2023-04-19T03:05:41.174Z,1.00
2023-04-19T03:08:07.949Z,1.00
2023-04-19T03:10:34.909Z,1.00
2023-04-19T03:13:02.190Z,1.00
2023-04-19T03:15:29.874Z,1.00
2023-04-19T03:17:56.621Z,1.00
2023-04-19T03:20:23.267Z,1.00
2023-04-19T03:22:50.403Z,1.00
2023-04-19T03:25:17.692Z,1.00
2023-04-19T03:27:50.962Z,1.00
2023-04-19T03:30:22.885Z,1.00
2023-04-19T03:32:49.669Z,1.00
2023-04-19T03:35:16.850Z,1.00
2023-04-19T03:37:44.149Z,1.00
2023-04-19T03:40:11.385Z,1.00
2023-04-19T03:42:38.043Z,1.00
2023-04-19T03:45:23.087Z,1.00
2023-04-19T03:47:49.923Z,1.00
2023-04-19T03:50:16.872Z,1.00
2023-04-19T03:52:47.117Z,1.00
2023-04-19T03:55:14.596Z,1.00
2023-04-19T03:57:41.269Z,1.00
2023-04-19T04:00:18.247Z,1.00
2023-04-19T04:02:51.933Z,1.00
2023-04-19T04:05:19.321Z,1.00
2023-04-19T04:07:46.538Z,1.00
2023-04-19T04:10:13.167Z,1.00
2023-04-19T04:12:42.766Z,1.00
2023-04-19T04:15:12.852Z,1.00
2023-04-19T04:17:46.097Z,1.00
2023-04-19T04:20:13.751Z,1.00
2023-04-19T04:22:42.908Z,1.00
2023-04-19T04:25:12.443Z,1.00
2023-04-19T04:27:39.315Z,1.00
2023-04-19T04:30:09.878Z,1.00
2023-04-19T04:32:38.172Z,1.00
2023-04-19T04:35:06.268Z,1.00
2023-04-19T04:37:40.222Z,1.00
2023-04-19T04:40:08.863Z,1.00
2023-04-19T04:42:35.687Z,1.00
2023-04-19T04:45:02.759Z,1.00
2023-04-19T04:47:32.349Z,1.00
2023-04-19T04:50:02.302Z,1.00
2023-04-19T04:52:29.742Z,1.00
2023-04-19T04:55:19.024Z,1.00
2023-04-19T04:57:45.737Z,1.00
2023-04-19T05:00:18.471Z,1.00
2023-04-19T05:02:54.444Z,1.00
2023-04-19T05:05:22.868Z,1.00
2023-04-19T05:07:49.654Z,1.00
2023-04-19T05:10:16.746Z,1.00
2023-04-19T05:12:45.456Z,1.00
2023-04-19T05:15:12.320Z,1.00
2023-04-19T05:17:43.709Z,1.00
2023-04-19T05:20:10.832Z,1.00
2023-04-19T05:22:38.324Z,1.00
2023-04-19T05:25:10.476Z,1.00
2023-04-19T05:27:38.065Z,1.00
2023-04-19T05:30:06.624Z,1.00
2023-04-19T05:32:35.185Z,1.00
2023-04-19T05:35:04.304Z,1.00
2023-04-19T05:37:31.109Z,1.00
2023-04-19T05:39:58.243Z,1.00
2023-04-19T05:42:25.523Z,1.00
2023-04-19T05:44:52.241Z,1.00
2023-04-19T05:47:19.530Z,1.00
2023-04-19T05:50:21.730Z,1.00
2023-04-19T05:53:09.419Z,1.00
2023-04-19T05:55:36.126Z,1.00
2023-04-19T05:58:02.829Z,1.00
2023-04-19T06:00:30.611Z,1.00
2023-04-19T06:03:07.254Z,1.00
2023-04-19T06:05:34.230Z,1.00
2023-04-19T06:08:02.418Z,1.00
2023-04-19T06:10:40.364Z,1.00
2023-04-19T06:13:16.032Z,1.00
2023-04-19T06:15:42.997Z,1.00
2023-04-19T06:18:11.005Z,1.00
2023-04-19T06:20:46.996Z,1.00
2023-04-19T06:23:14.734Z,1.00
2023-04-19T06:25:41.614Z,1.00
2023-04-19T06:28:08.291Z,1.00
2023-04-19T06:30:34.950Z,1.00
2023-04-19T06:33:01.645Z,1.00
2023-04-19T06:35:28.576Z,1.00
2023-04-19T06:37:55.249Z,1.00
2023-04-19T06:40:21.961Z,1.00
2023-04-19T06:42:48.575Z,1.00
2023-04-19T06:45:16.090Z,1.00
2023-04-19T06:47:42.757Z,1.00
2023-04-19T06:50:10.709Z,1.00
2023-04-19T06:52:37.648Z,1.00
2023-04-19T06:55:05.204Z,1.00
2023-04-19T06:57:31.829Z,1.00
2023-04-19T06:59:58.557Z,1.00
2023-04-19T07:02:25.623Z,1.00
2023-04-19T07:04:52.568Z,1.00
2023-04-19T07:07:19.351Z,1.00
2023-04-19T07:09:46.094Z,1.00
2023-04-19T07:12:12.692Z,1.00
2023-04-19T07:14:39.301Z,1.00
2023-04-19T07:17:06.122Z,1.00
2023-04-19T07:19:33.065Z,1.00
2023-04-19T07:21:59.845Z,1.00
2023-04-19T07:24:27.892Z,1.00
2023-04-19T07:26:54.549Z,97.30
2023-04-19T07:29:21.176Z,92.10
2023-04-19T07:31:48.277Z,92.60
2023-04-19T07:34:15.205Z,94.10
2023-04-19T07:36:42.077Z,92.90
2023-04-19T07:39:08.999Z,97.60
2023-04-19T07:41:36.258Z,96.00
2023-04-19T07:44:03.300Z,95.80
2023-04-19T07:46:30.122Z,97.10
2023-04-19T07:48:56.848Z,99.90
2023-04-19T07:51:24.592Z,96.60
2023-04-19T07:53:51.206Z,97.70
2023-04-19T07:56:19.599Z,98.70
2023-04-19T07:58:50.888Z,91.80
2023-04-19T08:01:23.559Z,90.90
2023-04-19T08:03:50.787Z,91.90
2023-04-19T08:06:21.607Z,93.30
2023-04-19T08:08:50.099Z,92.80
2023-04-19T08:11:16.873Z,97.80
2023-04-19T08:13:51.610Z,99.10
2023-04-19T08:17:06.391Z,97.40
2023-04-19T08:19:14.803Z,96.60
2023-04-19T08:21:41.887Z,96.40
2023-04-19T08:24:08.739Z,99.90
2023-04-19T08:26:35.465Z,99.90
2023-04-19T08:29:02.266Z,98.30
2023-04-19T08:31:29.112Z,99.40
2023-04-19T08:33:56.888Z,96.90
2023-04-19T08:36:36.021Z,99.30
2023-04-19T08:39:10.374Z,96.70
2023-04-19T08:41:48.087Z,97.50
2023-04-19T08:44:32.664Z,99.90
2023-04-19T08:47:02.614Z,98.70
2023-04-19T08:49:29.537Z,98.90
2023-04-19T08:51:58.815Z,94.90
2023-04-19T08:54:26.194Z,96.90
2023-04-19T08:56:54.443Z,98.80
2023-04-19T08:59:21.287Z,94.80
2023-04-19T09:01:48.098Z,92.50
2023-04-19T09:04:27.200Z,90.70
2023-04-19T09:07:01.021Z,89.10
2023-04-19T09:11:59.561Z,89.90
2023-04-19T09:14:27.923Z,86.90
2023-04-19T09:17:11.423Z,85.40
2023-04-19T09:19:50.615Z,86.70
2023-04-19T09:22:17.946Z,86.50
2023-04-19T09:27:24.793Z,84.90
2023-04-19T09:29:56.198Z,83.30
2023-04-19T09:32:23.804Z,83.80
2023-04-19T09:35:00.008Z,84.50
2023-04-19T09:39:56.909Z,81.90
2023-04-19T09:42:38.615Z,89.30
2023-04-19T09:45:28.194Z,82.60
2023-04-19T09:48:09.267Z,80.30
2023-04-19T09:53:21.274Z,80.00
2023-04-19T09:55:57.727Z,77.10
2023-04-19T09:58:34.476Z,78.20
2023-04-19T10:01:15.701Z,75.60
2023-04-19T10:03:46.375Z,73.40
2023-04-19T10:06:39.986Z,73.60
2023-04-19T10:09:04.779Z,74.00
2023-04-19T10:11:39.126Z,72.30
2023-04-19T10:14:08.213Z,72.40
2023-04-19T10:16:36.494Z,76.00
2023-04-19T10:19:08.229Z,73.20
2023-04-19T10:21:37.454Z,73.40
2023-04-19T10:24:05.381Z,73.40
2023-04-19T10:27:06.809Z,71.80
2023-04-19T10:29:51.740Z,69.90
2023-04-19T10:32:18.575Z,70.30
2023-04-19T10:34:47.014Z,72.30
2023-04-19T10:37:17.011Z,72.80
2023-04-19T10:39:44.694Z,72.10
2023-04-19T10:42:11.310Z,70.10
2023-04-19T10:44:37.928Z,70.10
2023-04-19T10:47:06.034Z,69.80
2023-04-19T10:49:45.355Z,74.70
2023-04-19T10:52:30.464Z,70.50
2023-04-19T10:54:57.188Z,69.00
2023-04-19T10:57:25.307Z,83.30
2023-04-19T11:00:21.753Z,68.60
2023-04-19T11:02:48.543Z,75.20
2023-04-19T11:05:15.377Z,73.90
2023-04-19T11:07:42.426Z,78.40
2023-04-19T11:10:10.148Z,81.80
2023-04-19T11:12:37.240Z,69.30
2023-04-19T11:15:06.124Z,72.60
2023-04-19T11:17:32.893Z,68.20
2023-04-19T11:20:06.745Z,76.80
2023-04-19T11:22:34.852Z,73.30
2023-04-19T11:25:17.338Z,73.50
2023-04-19T11:27:45.717Z,78.20
2023-04-19T11:30:14.999Z,69.20
2023-04-19T11:32:48.831Z,69.00
2023-04-19T11:35:19.672Z,73.10
2023-04-19T11:37:46.677Z,78.50
2023-04-19T11:40:18.228Z,67.70
2023-04-19T11:42:45.887Z,67.10
2023-04-19T11:47:53.048Z,65.90
2023-04-19T11:50:42.631Z,65.70
2023-04-19T11:53:16.478Z,65.00
2023-04-19T11:55:44.508Z,67.10
2023-04-19T11:58:23.109Z,69.10
2023-04-19T12:00:49.753Z,65.10
2023-04-19T12:03:17.021Z,66.70
2023-04-19T12:05:58.247Z,84.50
2023-04-19T12:08:33.176Z,88.50
2023-04-19T12:11:00.873Z,71.00
2023-04-19T12:13:27.746Z,71.90
2023-04-19T12:15:54.509Z,70.10
2023-04-19T12:18:21.166Z,66.50
2023-04-19T12:20:52.274Z,69.60
2023-04-19T12:23:20.565Z,67.70
2023-04-19T12:25:48.701Z,73.80
2023-04-19T12:28:16.168Z,67.20
2023-04-19T12:30:43.359Z,65.30
2023-04-19T12:33:10.893Z,65.00
2023-04-19T12:35:38.457Z,79.00
2023-04-19T12:38:05.131Z,69.40
2023-04-19T12:40:31.882Z,80.60
2023-04-19T12:42:58.506Z,68.30
2023-04-19T12:45:25.129Z,69.40
2023-04-19T12:47:51.841Z,82.60
2023-04-19T12:50:18.486Z,68.90
2023-04-19T12:52:46.039Z,69.00
2023-04-19T12:55:12.870Z,73.90
2023-04-19T12:57:39.597Z,73.60
2023-04-19T13:00:07.322Z,73.40
2023-04-19T13:02:34.945Z,71.90
2023-04-19T13:05:02.191Z,72.80
2023-04-19T13:07:29.084Z,77.30
2023-04-19T13:09:56.975Z,71.40
2023-04-19T13:12:23.974Z,70.50
2023-04-19T13:14:52.157Z,69.90
2023-04-19T13:17:19.942Z,83.10
2023-04-19T13:19:47.311Z,72.60
2023-04-19T13:22:14.051Z,71.90
2023-04-19T13:24:40.808Z,69.10
2023-04-19T13:27:08.731Z,68.00
2023-04-19T13:29:35.955Z,72.30
2023-04-19T13:32:02.628Z,68.30
2023-04-19T13:34:29.530Z,67.90
2023-04-19T13:36:57.573Z,66.60
2023-04-19T13:39:24.375Z,74.20
2023-04-19T13:41:51.215Z,91.10
2023-04-19T13:44:18.131Z,67.20
2023-04-19T13:46:45.165Z,65.50
2023-04-19T13:49:11.895Z,67.90
2023-04-19T13:51:48.979Z,66.20
2023-04-19T13:54:20.281Z,65.50
2023-04-19T13:56:49.173Z,67.30
2023-04-19T13:59:17.322Z,65.30
2023-04-19T14:01:43.922Z,65.40
2023-04-19T14:04:10.910Z,79.30
2023-04-19T14:06:40.698Z,64.40
2023-04-19T14:09:07.357Z,70.40
2023-04-19T14:11:34.418Z,64.60
2023-04-19T14:14:01.204Z,63.90
2023-04-19T14:16:27.853Z,66.00
2023-04-19T14:18:54.461Z,73.40
2023-04-19T14:21:21.176Z,72.90
2023-04-19T14:23:47.777Z,71.30
2023-04-19T14:26:14.994Z,66.40
2023-04-19T14:28:41.648Z,81.10
2023-04-19T14:31:08.271Z,64.90
2023-04-19T14:33:34.907Z,76.10
2023-04-19T14:36:01.588Z,77.50
2023-04-19T14:38:28.392Z,66.90
2023-04-19T14:40:55.236Z,67.80
2023-04-19T14:43:21.894Z,62.70
2023-04-19T14:45:49.818Z,76.80
2023-04-19T14:48:16.587Z,67.80
2023-04-19T14:50:43.257Z,64.00
2023-04-19T14:53:09.965Z,62.00
2023-04-19T14:55:39.324Z,62.30
2023-04-19T14:58:06.168Z,62.20
2023-04-19T15:00:33.282Z,61.60
2023-04-19T15:03:01.085Z,61.00
2023-04-19T15:05:28.020Z,59.80
2023-04-19T15:07:54.711Z,59.80
2023-04-19T15:10:21.352Z,60.00
2023-04-19T15:12:47.992Z,59.90
2023-04-19T15:15:14.607Z,1.00
2023-04-19T15:17:41.335Z,1.00
2023-04-19T15:20:08.762Z,1.00
2023-04-19T15:22:35.417Z,1.00
2023-04-19T15:25:02.177Z,1.00
2023-04-19T15:27:28.961Z,1.00
2023-04-19T15:29:55.729Z,1.00
2023-04-19T15:32:22.409Z,1.00
2023-04-19T15:34:49.096Z,1.00
2023-04-19T15:37:15.822Z,1.00
2023-04-19T15:39:43.510Z,1.00
2023-04-19T15:42:10.161Z,1.00
2023-04-19T15:44:36.735Z,1.00
2023-04-19T15:47:03.429Z,1.00
2023-04-19T15:49:30.468Z,99.90
2023-04-19T15:51:57.077Z,99.90
2023-04-19T15:54:23.645Z,1.00
2023-04-19T15:56:50.307Z,17.60
2023-04-19T15:59:17.184Z,56.20
2023-04-19T16:01:44.246Z,1.00
2023-04-19T16:04:11.073Z,1.00
2023-04-19T16:06:37.827Z,1.00
2023-04-19T16:09:04.563Z,1.00
2023-04-19T16:11:31.110Z,1.00
2023-04-19T16:13:57.701Z,1.00
2023-04-19T16:16:26.637Z,1.00
2023-04-19T16:18:53.295Z,1.00
2023-04-19T16:21:19.859Z,1.00
2023-04-19T16:23:46.466Z,1.00
2023-04-19T16:26:13.147Z,1.00
2023-04-19T16:28:39.732Z,1.00
2023-04-19T16:31:06.353Z,1.00
2023-04-19T16:33:32.951Z,1.00
2023-04-19T16:35:59.544Z,1.00
2023-04-19T16:38:26.226Z,1.00
2023-04-19T16:40:53.301Z,1.00
2023-04-19T16:43:20.812Z,1.00
2023-04-19T16:45:48.032Z,1.00
2023-04-19T16:48:14.718Z,1.00
2023-04-19T16:50:41.350Z,1.00
2023-04-19T16:53:07.938Z,1.00
2023-04-19T16:55:34.541Z,1.00
2023-04-19T16:58:01.146Z,1.00
2023-04-19T17:00:27.803Z,1.00
2023-04-19T17:02:54.651Z,1.00
2023-04-19T17:05:21.978Z,1.00
2023-04-19T17:07:48.611Z,1.00
2023-04-19T17:10:15.209Z,1.00
2023-04-19T17:12:41.899Z,1.00
2023-04-19T17:15:08.833Z,1.00
2023-04-19T17:17:35.573Z,1.00
2023-04-19T17:20:03.298Z,1.00
2023-04-19T17:22:29.883Z,1.00
2023-04-19T17:24:57.300Z,1.00
2023-04-19T17:27:23.908Z,1.00
2023-04-19T17:29:50.535Z,1.00
2023-04-19T17:32:17.142Z,1.00
2023-04-19T17:34:43.792Z,1.00
2023-04-19T17:37:10.413Z,1.00
2023-04-19T17:39:36.994Z,1.00
2023-04-19T17:42:03.695Z,1.00
2023-04-19T17:44:30.686Z,1.00
2023-04-19T17:46:57.430Z,1.00
2023-04-19T17:49:24.835Z,1.00
2023-04-19T17:51:53.033Z,1.00
2023-04-19T17:54:20.727Z,1.00
2023-04-19T17:56:47.518Z,1.00
2023-04-19T17:59:14.257Z,1.00
2023-04-19T18:01:41.079Z,1.00
2023-04-19T18:04:07.829Z,1.00
2023-04-19T18:06:34.633Z,1.00
2023-04-19T18:09:01.334Z,1.00
2023-04-19T18:11:28.676Z,1.00
2023-04-19T18:13:55.643Z,1.00
2023-04-19T18:16:22.415Z,1.00
2023-04-19T18:18:49.059Z,1.00
2023-04-19T18:21:15.984Z,1.00
2023-04-19T18:23:42.566Z,1.00
2023-04-19T18:26:09.183Z,1.00
2023-04-19T18:28:37.293Z,1.00
2023-04-19T18:31:06.572Z,1.00
2023-04-19T18:33:33.552Z,1.00
2023-04-19T18:36:00.224Z,1.00
2023-04-19T18:38:26.868Z,1.00
2023-04-19T18:40:53.515Z,1.00
2023-04-19T18:43:20.349Z,1.00
2023-04-19T18:45:53.704Z,1.00
2023-04-19T18:48:20.663Z,1.00
2023-04-19T18:50:47.290Z,1.00
2023-04-19T18:53:13.913Z,1.00
2023-04-19T18:55:40.514Z,1.00
2023-04-19T18:58:07.294Z,1.00
2023-04-19T19:00:33.912Z,1.00
2023-04-19T19:03:02.108Z,1.00
2023-04-19T19:05:30.714Z,1.00
2023-04-19T19:07:57.772Z,1.00
2023-04-19T19:10:48.500Z,1.00
2023-04-19T19:13:11.931Z,1.00
2023-04-19T19:15:40.548Z,1.00
2023-04-19T19:18:08.033Z,1.00
2023-04-19T19:20:34.813Z,1.00
2023-04-19T19:23:01.431Z,1.00
2023-04-19T19:25:28.220Z,1.00
2023-04-19T19:30:29.477Z,1.00
2023-04-19T19:32:56.336Z,1.00
2023-04-19T19:35:24.782Z,1.00
2023-04-19T19:37:52.694Z,1.00
2023-04-19T19:40:22.900Z,1.00
2023-04-19T19:42:49.691Z,1.00
2023-04-19T19:45:17.597Z,1.00
2023-04-19T19:47:48.562Z,1.00
2023-04-19T19:52:46.436Z,1.00
2023-04-19T19:55:13.778Z,1.00
2023-04-19T20:00:28.079Z,1.00
2023-04-19T20:02:59.001Z,1.00
2023-04-19T20:05:26.523Z,1.00
2023-04-19T20:08:08.180Z,1.00
2023-04-19T20:10:35.457Z,1.00
2023-04-19T20:13:02.078Z,1.00
2023-04-19T20:15:29.983Z,1.00
2023-04-19T20:17:56.699Z,1.00
2023-04-19T20:20:23.434Z,1.00
2023-04-19T20:22:50.148Z,1.00
2023-04-19T20:25:16.801Z,1.00
2023-04-19T20:27:43.465Z,1.00
2023-04-19T20:30:10.420Z,1.00
2023-04-19T20:32:37.497Z,1.00
2023-04-19T20:35:09.892Z,1.00
2023-04-19T20:37:40.035Z,1.00
2023-04-19T20:40:09.464Z,1.00
2023-04-19T20:42:36.083Z,1.00
2023-04-19T20:45:02.977Z,1.00
2023-04-19T20:47:30.833Z,1.00
2023-04-19T20:49:57.563Z,1.00
2023-04-19T20:52:24.210Z,1.00
2023-04-19T20:54:51.089Z,1.00
2023-04-19T20:57:17.684Z,1.00
2023-04-19T20:59:44.950Z,1.00
2023-04-19T21:02:11.628Z,1.00
2023-04-19T21:04:38.347Z,1.00
2023-04-19T21:07:05.075Z,1.00
2023-04-19T21:09:32.949Z,1.00
2023-04-19T21:11:59.597Z,1.00
2023-04-19T21:14:26.236Z,1.00
2023-04-19T21:16:52.828Z,1.00
2023-04-19T21:19:19.525Z,1.00
2023-04-19T21:21:46.156Z,1.00
2023-04-19T21:24:12.728Z,1.00
2023-04-19T21:26:39.347Z,1.00
2023-04-19T21:29:05.946Z,1.00
2023-04-19T21:31:32.636Z,1.00
2023-04-19T21:33:59.297Z,1.00
2023-04-19T21:36:26.463Z,1.00
2023-04-19T21:38:53.068Z,1.00
2023-04-19T21:41:19.694Z,1.00
2023-04-19T21:43:46.503Z,1.00
2023-04-19T21:46:13.172Z,1.00
2023-04-19T21:48:39.939Z,1.00
2023-04-19T21:51:06.556Z,1.00
2023-04-19T21:53:33.233Z,1.00
2023-04-19T21:55:59.901Z,1.00
2023-04-19T21:58:26.516Z,1.00
2023-04-19T22:00:53.673Z,1.00
2023-04-19T22:03:20.624Z,1.00
2023-04-19T22:05:47.371Z,1.00
2023-04-19T22:08:14.347Z,1.00
2023-04-19T22:10:41.174Z,1.00
2023-04-19T22:13:08.610Z,1.00
2023-04-19T22:15:35.249Z,1.00
2023-04-19T22:18:03.128Z,1.00
2023-04-19T22:20:31.940Z,1.00
2023-04-19T22:22:58.599Z,1.00
2023-04-19T22:25:25.346Z,1.00
2023-04-19T22:27:52.094Z,1.00
2023-04-19T22:30:18.804Z,1.00
2023-04-19T22:32:45.515Z,1.00
2023-04-19T22:35:12.195Z,1.00
2023-04-19T22:37:38.816Z,1.00
2023-04-19T22:40:06.716Z,1.00
2023-04-19T22:42:33.346Z,1.00
2023-04-19T22:44:59.986Z,1.00
2023-04-19T22:47:26.964Z,1.00
2023-04-19T22:49:54.434Z,1.00
2023-04-19T22:52:21.034Z,1.00
2023-04-19T22:54:47.615Z,1.00
2023-04-19T22:57:14.413Z,1.00
2023-04-19T22:59:40.996Z,1.00
2023-04-19T23:02:07.655Z,1.00
2023-04-19T23:04:38.000Z,1.00
2023-04-19T23:07:04.867Z,1.00
2023-04-19T23:09:31.516Z,1.00
2023-04-19T23:12:00.982Z,1.00
2023-04-19T23:14:28.323Z,1.00
2023-04-19T23:16:55.643Z,1.00
2023-04-19T23:19:22.777Z,1.00
2023-04-19T23:21:50.276Z,1.00
2023-04-19T23:24:17.577Z,1.00
2023-04-19T23:26:44.222Z,1.00
2023-04-19T23:29:10.825Z,1.00
2023-04-19T23:31:37.511Z,1.00
2023-04-19T23:34:04.250Z,1.00
2023-04-19T23:36:31.198Z,1.00
2023-04-19T23:38:57.868Z,1.00
2023-04-19T23:41:24.568Z,1.00
2023-04-19T23:43:51.437Z,1.00
2023-04-19T23:46:18.035Z,1.00
2023-04-19T23:48:44.667Z,1.00
2023-04-19T23:51:12.521Z,1.00
2023-04-19T23:53:39.121Z,1.00
2023-04-19T23:56:06.465Z,1.00
2023-04-19T23:58:33.098Z,1.00
